Date,TemperatureHighF,TemperatureAvgF,TemperatureLowF,DewpointHighF,DewpointAvgF,DewpointLowF,HumidityHigh,HumidityAvg,HumidityLow,PressureMaxIn,PressureMinIn,WindSpeedMaxMPH,WindSpeedAvgMPH,GustSpeedMaxMPH,PrecipitationSumIn
2010-6-1,87.3,70.4,54.4,70.1,61.7,51.8,95,76,52,29.91,29.63,14,1,0,1.77
2010-6-2,76.7,68.4,61.7,66.4,63.1,59.1,97,84,62,29.80,29.62,15,2,0,0.01
2010-6-3,80.3,69.6,55.6,61.7,58.7,54.2,96,71,47,29.85,29.70,12,1,0,0.00
2010-6-4,88.0,75.2,65.8,70.2,65.6,60.9,96,74,42,29.72,29.62,15,1,0,0.36
2010-6-5,82.2,71.4,61.4,74.4,65.5,56.9,95,82,59,29.85,29.56,21,3,0,0.69
2010-6-6,82.7,69.6,55.8,61.3,53.5,44.1,96,63,27,29.98,29.84,21,2,0,0.00
2010-6-7,74.3,67.9,63.3,64.0,59.8,54.6,92,76,56,30.03,29.92,9,0,0,0.05
2010-6-8,79.8,70.3,64.9,70.2,65.7,61.1,96,86,70,29.94,29.72,16,1,0,0.76
2010-6-9,85.0,72.6,61.0,63.5,57.7,48.9,96,65,30,29.95,29.84,19,2,0,0.01
2010-6-10,73.4,67.7,62.6,67.9,61.5,55.6,96,81,66,30.01,29.69,18,1,5,0.91
2010-6-11,87.4,76.4,66.9,76.7,71.1,65.4,96,85,64,29.85,29.70,14,1,0,0.38
2010-6-12,83.2,74.8,66.5,74.8,70.3,64.7,97,86,70,30.00,29.82,23,2,0,1.49
2010-6-13,76.7,69.1,63.4,69.9,66.0,61.9,96,90,77,30.05,29.91,14,1,0,0.73
2010-6-14,83.0,72.8,66.3,72.6,68.4,64.9,97,87,66,29.93,29.80,12,1,11,0.24
2010-6-15,78.7,70.0,61.5,68.1,64.1,56.1,97,83,57,29.97,29.83,13,1,11,0.15
2010-6-16,87.2,72.4,57.9,71.9,63.2,56.2,97,75,54,30.07,29.94,11,1,0,0.00
2010-6-17,91.5,79.2,67.4,77.1,70.6,59.1,94,76,54,29.98,29.71,20,2,0,0.21
2010-6-18,82.3,71.1,61.3,73.7,67.2,58.9,96,88,64,30.00,29.73,27,1,0,0.83
2010-6-19,84.6,74.9,63.9,71.8,65.1,56.6,98,75,44,30.06,29.85,17,1,0,0.01
2010-6-20,79.8,73.1,67.0,72.5,69.1,65.2,96,88,73,30.06,29.83,13,0,0,0.20
2010-6-21,82.3,72.8,65.8,74.5,69.0,64.5,97,89,72,30.08,29.81,18,1,3,0.49
2010-6-22,94.0,80.0,69.2,80.5,72.4,-99.9,97,80,51,30.01,29.79,14,-2,9,0.12
2010-6-23,84.2,76.3,65.5,76.2,69.4,61.9,96,80,60,30.07,29.74,21,3,0,0.63
2010-6-24,83.7,71.9,62.2,65.9,62.6,59.8,96,75,49,30.13,30.01,8,1,10,0.00
2010-6-25,88.2,77.3,64.6,73.3,67.0,62.3,93,72,50,30.03,29.74,13,2,0,0.00
2010-6-26,92.2,78.0,66.4,76.7,70.6,64.2,96,80,57,29.96,29.60,25,2,11,1.58
2010-6-27,83.1,75.4,67.1,75.3,68.9,65.1,96,81,66,29.74,29.55,23,2,0,1.04
2010-6-28,82.0,72.6,61.9,65.9,61.1,56.5,91,70,45,30.01,29.73,12,2,24,0.00
2010-6-29,79.2,68.7,57.1,61.3,56.8,52.1,96,70,44,30.16,30.01,5,1,11,0.00
2010-6-30,82.3,79.8,75.8,65.1,61.8,58.8,62,54,49,30.24,30.14,10,1,0,0.00